Time;durP1;ratioP1;P1;durP2;ratioP2;P2;SDS_P1;SDS_P2;PMS_P1;PMS_P2;Temp;Humidity;BMP_temperature;BMP_pressure;BME280_temperature;BME280_humidity;BME280_pressure;Samples;Min_cycle;Max_cycle;Signal;HPM_P1;HPM_P2
2021/06/30 00:02:02;;;;;;;6.78;2.25;;;;;;;20.74;65.93;96053.80;1657268;84;20995;-80
2021/06/30 00:04:28;;;;;;;3.40;2.00;;;;;;;20.45;66.76;96078.38;1691301;84;21005;-80
2021/06/30 00:06:54;;;;;;;5.50;2.50;;;;;;;20.04;68.21;95996.23;1675771;84;22174;-80
2021/06/30 00:09:19;;;;;;;8.53;2.85;;;;;;;20.04;68.21;95996.23;1691114;83;21025;-80
2021/06/30 00:11:45;;;;;;;4.95;2.30;;;;;;;19.77;69.24;96003.62;1675752;84;21028;-80
2021/06/30 00:14:13;;;;;;;5.17;2.42;;;;;;;19.62;70.50;96035.09;1690887;83;20982;-80
2021/06/30 00:16:39;;;;;;;3.72;2.50;;;;;;;19.41;70.46;96031.92;1675822;85;20917;-80
2021/06/30 00:19:07;;;;;;;8.60;2.77;;;;;;;19.27;70.87;96020.16;1683866;83;21055;-79
2021/06/30 00:21:33;;;;;;;9.35;2.60;;;;;;;19.18;71.53;96019.25;1675938;85;20986;-80
2021/06/30 00:23:59;;;;;;;3.70;2.35;;;;;;;19.07;71.66;96037.81;1691296;83;21029;-80
2021/06/30 00:26:24;;;;;;;5.25;2.95;;;;;;;18.96;72.25;96035.56;1675322;84;20904;-80
2021/06/30 00:28:50;;;;;;;2.83;2.17;;;;;;;18.92;72.66;96025.24;1682950;84;21024;-79
2021/06/30 00:31:17;;;;;;;6.08;2.67;;;;;;;18.93;73.17;96022.88;1693227;83;21375;-80
2021/06/30 00:33:44;;;;;;;5.50;2.45;;;;;;;18.85;72.90;96016.70;1678434;84;21306;-80
2021/06/30 00:36:11;;;;;;;4.62;1.85;;;;;;;18.78;73.31;96016.09;1678562;84;20945;-80
2021/06/30 00:38:37;;;;;;;6.28;2.83;;;;;;;18.74;73.72;96034.20;1696193;83;20956;-80
2021/06/30 00:41:03;;;;;;;4.83;1.80;;;;;;;18.65;73.47;96042.22;1678592;84;20941;-80
2021/06/30 00:43:28;;;;;;;3.40;1.50;;;;;;;18.60;74.10;96040.28;1681253;84;21019;-79
2021/06/30 00:45:54;;;;;;;5.05;1.60;;;;;;;18.58;74.15;96036.30;1674388;85;20994;-79
2021/06/30 00:48:20;;;;;;;4.37;1.55;;;;;;;18.53;74.35;96036.20;1674361;85;21407;-80
2021/06/30 00:50:45;;;;;;;3.87;1.50;;;;;;;18.48;74.60;96051.40;1685430;84;21009;-80
2021/06/30 00:53:11;;;;;;;4.92;1.60;;;;;;;18.44;75.08;96060.81;1686872;84;20948;-80
2021/06/30 00:55:38;;;;;;;8.65;2.20;;;;;;;18.44;75.09;96061.33;1688249;84;20936;-80
2021/06/30 00:58:05;;;;;;;4.30;2.05;;;;;;;18.45;75.84;96039.25;1676495;84;20985;-80
2021/06/30 01:00:31;;;;;;;5.33;1.70;;;;;;;18.43;76.27;96005.81;1665924;85;20951;-80
2021/06/30 01:02:57;;;;;;;3.87;1.82;;;;;;;18.44;76.31;95995.56;1668996;85;21251;-80
2021/06/30 01:05:23;;;;;;;3.98;1.90;;;;;;;18.45;76.59;95990.58;1657581;84;20921;-80
2021/06/30 01:07:48;;;;;;;5.75;2.27;;;;;;;18.46;76.77;95983.77;1674378;85;20974;-80
2021/06/30 01:10:14;;;;;;;5.37;1.92;;;;;;;18.49;77.04;95966.70;1673012;84;21014;-80
2021/06/30 01:12:40;;;;;;;4.15;2.47;;;;;;;18.49;77.07;95953.02;1654386;85;20979;-80
2021/06/30 01:15:08;;;;;;;5.92;1.87;;;;;;;18.53;77.21;95920.44;1650683;85;20970;-80
2021/06/30 01:17:34;;;;;;;5.35;1.80;;;;;;;18.54;77.39;95928.09;1680116;85;20982;-79
2021/06/30 01:20:00;;;;;;;3.55;1.60;;;;;;;18.55;77.83;95928.91;1674436;85;21338;-80
2021/06/30 01:22:25;;;;;;;2.98;1.62;;;;;;;18.53;77.76;95887.03;1661476;84;20900;-80
2021/06/30 01:24:52;;;;;;;3.37;1.90;;;;;;;18.53;77.58;95858.09;1672324;84;21001;-80
2021/06/30 01:27:22;;;;;;;4.62;2.98;;;;;;;18.55;78.15;95861.83;1674911;84;20904;-79
2021/06/30 01:29:48;;;;;;;3.75;1.95;;;;;;;18.54;77.98;95854.42;1677444;84;21345;-80
2021/06/30 01:32:14;;;;;;;2.92;2.02;;;;;;;18.54;78.58;95828.64;1674107;84;20961;-80
2021/06/30 01:34:40;;;;;;;2.60;1.90;;;;;;;18.53;78.09;95802.05;1666592;85;20949;-80
2021/06/30 01:37:05;;;;;;;4.97;1.90;;;;;;;18.52;77.99;95777.58;1669374;85;20956;-80
2021/06/30 01:39:31;;;;;;;4.35;1.90;;;;;;;18.55;78.20;95763.97;1658841;85;20999;-80
2021/06/30 01:41:57;;;;;;;4.33;1.72;;;;;;;18.57;78.01;95754.50;1642483;86;20995;-80
2021/06/30 01:44:23;;;;;;;2.98;1.98;;;;;;;18.58;78.12;95745.56;1639636;86;20970;-80
2021/06/30 01:46:48;;;;;;;2.17;1.85;;;;;;;18.59;78.44;95733.48;1666242;85;21001;-80
2021/06/30 01:49:14;;;;;;;3.75;2.08;;;;;;;18.60;78.69;95735.59;1664591;85;21001;-80
2021/06/30 01:51:40;;;;;;;4.25;2.02;;;;;;;18.57;78.07;95726.88;1666807;85;21050;-80
2021/06/30 01:54:11;;;;;;;4.83;1.90;;;;;;;18.57;78.10;95732.94;1667871;85;21032;-79
2021/06/30 01:56:35;;;;;;;3.17;2.05;;;;;;;18.58;78.30;95733.20;1647306;85;21354;-80
2021/06/30 01:59:07;;;;;;;2.98;2.00;;;;;;;18.57;78.22;95728.20;1667419;85;20964;-80
2021/06/30 02:01:32;;;;;;;2.40;1.72;;;;;;;18.57;78.04;95721.62;1665740;84;20960;-80
2021/06/30 02:03:58;;;;;;;3.70;2.27;;;;;;;18.59;77.70;95721.64;1669288;85;21280;-80
2021/06/30 02:06:25;;;;;;;3.27;2.50;;;;;;;18.60;78.17;95720.59;1668884;85;21051;-80
2021/06/30 02:08:53;;;;;;;4.55;2.10;;;;;;;18.57;78.12;95714.52;1665120;84;21104;-80
2021/06/30 02:11:19;;;;;;;3.83;2.40;;;;;;;18.55;77.79;95717.92;1654376;86;20994;-80
2021/06/30 02:13:45;;;;;;;3.22;2.00;;;;;;;18.59;77.99;95711.12;1664827;85;20997;-80
2021/06/30 02:16:11;;;;;;;4.95;2.45;;;;;;;18.58;78.43;95708.22;1669242;85;20999;-80
2021/06/30 02:18:37;;;;;;;2.25;1.80;;;;;;;18.60;78.55;95699.55;1674568;84;20964;-80
2021/06/30 02:21:03;;;;;;;7.08;2.10;;;;;;;18.59;78.97;95696.64;1663311;85;21370;-79
2021/06/30 02:23:28;;;;;;;3.12;2.05;;;;;;;18.50;78.91;95692.86;1666466;85;21020;-79
2021/06/30 02:25:54;;;;;;;2.92;1.85;;;;;;;18.48;79.28;95689.69;1650248;85;20961;-80
2021/06/30 02:28:20;;;;;;;2.95;2.05;;;;;;;18.47;79.50;95674.15;1669100;85;20928;-80
2021/06/30 02:30:46;;;;;;;3.12;2.37;;;;;;;18.45;79.54;95679.66;1669043;85;20952;-81
2021/06/30 02:33:11;;;;;;;3.20;2.35;;;;;;;18.44;79.69;95676.77;1667672;85;21002;-80
2021/06/30 02:35:37;;;;;;;5.60;2.75;;;;;;;18.45;79.13;95669.66;1669243;85;20981;-80
2021/06/30 02:38:03;;;;;;;3.72;2.37;;;;;;;18.52;79.24;95670.25;1669205;85;20936;-80
2021/06/30 02:40:29;;;;;;;2.95;2.40;;;;;;;18.57;79.72;95671.11;1667644;85;20943;-79
2021/06/30 02:42:56;;;;;;;5.40;3.40;;;;;;;18.62;79.36;95661.67;1666707;86;20934;-80
2021/06/30 02:45:22;;;;;;;3.47;2.80;;;;;;;18.69;79.57;95644.65;1664744;85;20969;-80
2021/06/30 02:47:48;;;;;;;5.42;3.20;;;;;;;18.70;79.32;95637.55;1669183;85;20927;-80
2021/06/30 02:50:18;;;;;;;4.45;2.80;;;;;;;18.74;78.86;95637.34;1669188;85;20932;-80
2021/06/30 02:52:45;;;;;;;4.30;3.90;;;;;;;18.85;78.78;95642.41;1669086;85;20940;-80
2021/06/30 02:55:11;;;;;;;5.87;3.33;;;;;;;18.95;78.53;95631.70;1677683;84;21054;-80
2021/06/30 02:57:38;;;;;;;5.65;3.00;;;;;;;19.05;78.26;95644.42;1657250;85;20967;-80
2021/06/30 03:00:08;;;;;;;6.37;3.37;;;;;;;19.14;77.84;95653.95;1648969;85;20969;-80
2021/06/30 03:02:33;;;;;;;4.97;3.72;;;;;;;19.26;78.42;95676.16;1663935;85;20946;-80
2021/06/30 03:04:59;;;;;;;3.10;2.80;;;;;;;19.20;78.02;95685.88;1667921;85;20911;-79
2021/06/30 03:07:25;;;;;;;4.03;2.47;;;;;;;19.09;78.25;95700.00;1649164;86;21294;-80
2021/06/30 03:09:50;;;;;;;3.45;2.20;;;;;;;18.92;77.79;95721.19;1659458;85;20993;-79
2021/06/30 03:12:16;;;;;;;4.85;3.10;;;;;;;18.86;77.99;95732.70;1651478;85;21003;-80
2021/06/30 03:14:42;;;;;;;4.58;2.55;;;;;;;18.80;77.87;95752.92;1666571;85;21363;-80
2021/06/30 03:17:07;;;;;;;3.55;2.37;;;;;;;18.79;78.06;95769.76;1668033;85;21011;-80
2021/06/30 03:19:33;;;;;;;3.25;2.33;;;;;;;18.77;78.21;95763.16;1669319;85;20952;-80
2021/06/30 03:21:59;;;;;;;3.98;2.33;;;;;;;18.68;78.12;95768.05;1669345;86;20924;-80
2021/06/30 03:24:25;;;;;;;3.35;2.50;;;;;;;18.62;78.40;95778.23;1651475;85;20948;-80
2021/06/30 03:26:50;;;;;;;4.03;2.42;;;;;;;18.64;78.54;95776.70;1669082;85;20952;-80
2021/06/30 03:29:16;;;;;;;2.37;2.12;;;;;;;18.68;78.61;95779.89;1668822;85;21007;-80
2021/06/30 03:31:43;;;;;;;4.87;2.25;;;;;;;18.71;78.72;95778.59;1667628;85;21360;-80
2021/06/30 03:34:08;;;;;;;4.80;2.52;;;;;;;18.72;78.92;95788.11;1642663;85;21000;-80
2021/06/30 03:36:34;;;;;;;3.60;2.30;;;;;;;18.76;78.74;95801.05;1663801;85;20993;-80
2021/06/30 03:39:00;;;;;;;3.40;2.45;;;;;;;18.81;78.88;95800.56;1664139;85;21297;-80
2021/06/30 03:41:25;;;;;;;2.67;2.22;;;;;;;18.75;78.64;95820.52;1665017;85;21227;-79
2021/06/30 03:43:51;;;;;;;4.28;2.17;;;;;;;18.75;78.98;95826.56;1612434;86;21021;-80
2021/06/30 03:46:17;;;;;;;3.87;2.90;;;;;;;18.76;79.05;95833.94;1654057;85;21021;-80
2021/06/30 03:48:43;;;;;;;5.65;2.35;;;;;;;18.75;79.06;95826.56;1664346;85;21069;-79
2021/06/30 03:51:09;;;;;;;4.78;2.22;;;;;;;18.76;78.91;95837.37;1640718;86;21002;-80
2021/06/30 03:53:34;;;;;;;3.67;2.60;;;;;;;18.80;78.98;95852.14;1638207;86;21407;-79
2021/06/30 03:56:01;;;;;;;3.37;2.83;;;;;;;18.81;79.24;95865.05;1645126;85;20991;-80
2021/06/30 03:58:27;;;;;;;4.97;2.85;;;;;;;18.75;79.25;95869.20;1664182;85;21338;-80
2021/06/30 04:00:53;;;;;;;3.80;2.85;;;;;;;18.69;78.91;95876.73;1649709;85;20977;-80
2021/06/30 04:03:19;;;;;;;3.45;2.55;;;;;;;18.69;78.84;95876.73;1649710;85;20957;-80
2021/06/30 04:05:45;;;;;;;7.00;2.98;;;;;;;18.73;79.33;95877.86;1657001;85;20972;-80
2021/06/30 04:08:12;;;;;;;4.60;2.70;;;;;;;18.73;79.26;95881.81;1668459;85;20957;-80
2021/06/30 04:10:38;;;;;;;5.20;2.83;;;;;;;18.68;78.95;95879.89;1658148;84;20960;-80
2021/06/30 04:13:05;;;;;;;5.70;2.92;;;;;;;18.65;79.30;95881.70;1655540;85;20938;-80
2021/06/30 04:15:31;;;;;;;4.70;2.80;;;;;;;18.63;79.04;95885.59;1662340;85;20941;-80
2021/06/30 04:18:00;;;;;;;4.25;2.90;;;;;;;18.57;79.21;95884.22;1650725;86;20958;-80
2021/06/30 04:20:25;;;;;;;5.30;3.27;;;;;;;18.53;79.36;95890.98;1659102;85;21067;-80
2021/06/30 04:22:51;;;;;;;4.75;2.85;;;;;;;18.56;79.54;95904.20;1669089;85;20957;-80
2021/06/30 04:25:17;;;;;;;4.40;2.90;;;;;;;18.56;79.35;95910.77;1669571;85;20970;-81
2021/06/30 04:27:43;;;;;;;3.50;2.62;;;;;;;18.57;79.27;95913.68;1616532;86;21278;-79
2021/06/30 04:30:10;;;;;;;4.47;2.62;;;;;;;18.55;79.36;95917.08;1660094;86;20960;-80
2021/06/30 04:32:37;;;;;;;4.20;2.22;;;;;;;18.46;79.16;95924.58;1664592;85;20991;-80
2021/06/30 04:35:06;;;;;;;2.85;2.60;;;;;;;18.42;79.02;95937.14;1669172;85;20920;-80
2021/06/30 04:37:32;;;;;;;3.47;2.33;;;;;;;18.38;78.73;95930.75;1668718;85;21332;-80
2021/06/30 04:39:58;;;;;;;3.80;2.62;;;;;;;18.34;78.89;95940.17;1669101;85;21015;-79
2021/06/30 04:42:24;;;;;;;2.83;2.40;;;;;;;18.31;78.77;95940.14;1665778;85;21006;-80
2021/06/30 04:44:49;;;;;;;3.17;2.47;;;;;;;18.30;78.74;95948.55;1667518;85;21019;-80
2021/06/30 04:47:15;;;;;;;2.87;2.10;;;;;;;18.25;79.15;95946.37;1669250;85;20947;-80
2021/06/30 04:49:41;;;;;;;3.15;2.05;;;;;;;18.28;79.09;95956.40;1666792;85;21422;-80
2021/06/30 04:52:07;;;;;;;3.42;1.90;;;;;;;18.29;78.86;95958.78;1668032;85;20947;-79
2021/06/30 04:54:33;;;;;;;4.65;2.35;;;;;;;18.37;79.03;95957.58;1620374;87;20967;-80
2021/06/30 04:56:58;;;;;;;4.75;2.10;;;;;;;18.40;79.01;95966.84;1658966;85;20940;-80
2021/06/30 04:59:24;;;;;;;3.02;1.87;;;;;;;18.48;79.08;95962.47;1664688;85;20955;-80
2021/06/30 05:01:52;;;;;;;3.85;1.98;;;;;;;18.51;78.64;95963.30;1669268;85;21245;-79
2021/06/30 05:04:19;;;;;;;3.10;2.12;;;;;;;18.57;78.89;95964.98;1669252;85;20972;-80
2021/06/30 05:06:45;;;;;;;2.90;1.92;;;;;;;18.60;78.58;95962.66;1665712;85;21245;-80
2021/06/30 05:09:12;;;;;;;3.25;1.80;;;;;;;18.64;78.78;95969.58;1669295;85;20968;-79
2021/06/30 05:11:37;;;;;;;2.40;1.95;;;;;;;18.67;78.66;95977.50;1668935;85;21310;-80
2021/06/30 05:14:03;;;;;;;3.17;1.57;;;;;;;18.70;78.83;95969.12;1669325;85;20928;-80
2021/06/30 05:16:29;;;;;;;3.25;1.55;;;;;;;18.74;78.56;95974.20;1669396;85;20970;-80
2021/06/30 05:18:55;;;;;;;1.92;1.22;;;;;;;18.79;78.41;95984.27;1669213;85;21039;-80
2021/06/30 05:21:21;;;;;;;1.82;1.20;;;;;;;18.86;78.28;95982.76;1669222;85;21035;-80
2021/06/30 05:23:48;;;;;;;2.05;1.00;;;;;;;18.80;77.77;95987.17;1668706;85;22003;-80
2021/06/30 05:26:14;;;;;;;3.70;1.30;;;;;;;18.74;77.62;95984.20;1667972;85;20957;-80
2021/06/30 05:28:40;;;;;;;1.80;1.15;;;;;;;18.73;77.65;95975.23;1664624;85;20927;-80
2021/06/30 05:31:05;;;;;;;1.92;1.45;;;;;;;18.69;77.91;95980.16;1664538;85;21334;-80
2021/06/30 05:33:31;;;;;;;2.58;1.00;;;;;;;18.71;77.57;95982.55;1659770;86;20994;-80
2021/06/30 05:35:57;;;;;;;2.17;1.00;;;;;;;18.72;77.58;95981.02;1644048;86;20974;-80
2021/06/30 05:38:23;;;;;;;1.98;1.10;;;;;;;18.72;77.12;95976.28;1656771;85;21273;-80
2021/06/30 05:40:49;;;;;;;1.70;1.25;;;;;;;18.74;77.37;95980.77;1661357;85;20944;-80
2021/06/30 05:43:15;;;;;;;1.15;1.00;;;;;;;18.81;77.53;95979.55;1661410;85;20970;-80
2021/06/30 05:45:42;;;;;;;2.27;0.90;;;;;;;18.84;76.67;95983.52;1659396;85;21055;-80
2021/06/30 05:48:07;;;;;;;2.02;0.85;;;;;;;18.84;76.81;95985.64;1661520;85;21256;-80
2021/06/30 05:50:33;;;;;;;2.30;0.90;;;;;;;18.89;77.39;95983.09;1663683;85;20976;-80
2021/06/30 05:52:59;;;;;;;1.67;0.98;;;;;;;18.95;77.36;95989.21;1640617;85;20938;-80
2021/06/30 05:55:25;;;;;;;1.80;0.80;;;;;;;18.98;76.63;95987.92;1649903;85;21019;-80
2021/06/30 05:57:51;;;;;;;1.50;0.95;;;;;;;19.06;76.70;95991.47;1654312;85;21321;-80
2021/06/30 06:00:19;;;;;;;3.70;1.10;;;;;;;19.15;76.99;95986.83;1660569;85;21003;-80
2021/06/30 06:02:47;;;;;;;1.35;0.90;;;;;;;19.31;76.80;95989.64;1669244;85;21002;-80
2021/06/30 06:05:14;;;;;;;4.58;1.22;;;;;;;19.47;76.63;95992.20;1660634;85;21040;-79
2021/06/30 06:07:40;;;;;;;3.62;1.15;;;;;;;19.58;75.75;95997.09;1649417;86;21002;-80
2021/06/30 06:10:07;;;;;;;2.67;1.25;;;;;;;19.61;75.87;95991.85;1649867;85;21279;-80
2021/06/30 06:12:33;;;;;;;3.27;1.72;;;;;;;19.59;75.50;96000.01;1652579;85;21002;-79
2021/06/30 06:14:59;;;;;;;1.65;1.20;;;;;;;19.62;75.82;96001.34;1649734;85;20938;-80
2021/06/30 06:17:24;;;;;;;2.90;1.05;;;;;;;19.65;76.17;95992.42;1651157;85;21239;-80
2021/06/30 06:19:50;;;;;;;2.80;1.10;;;;;;;19.68;76.03;95982.69;1668595;85;20978;-80
2021/06/30 06:22:16;;;;;;;1.22;1.00;;;;;;;19.78;76.41;95991.23;1637759;86;20975;-80
2021/06/30 06:24:42;;;;;;;5.12;1.35;;;;;;;19.83;75.84;95993.91;1668436;85;20960;-80
2021/06/30 06:27:07;;;;;;;2.92;1.10;;;;;;;19.92;76.92;95991.11;1650915;85;21006;-80
2021/06/30 06:29:34;;;;;;;1.40;0.90;;;;;;;20.03;76.88;95985.41;1661163;85;20967;-80
2021/06/30 06:32:01;;;;;;;1.80;1.20;;;;;;;20.12;76.84;95986.53;1673044;85;21017;-80
2021/06/30 06:34:28;;;;;;;2.60;1.10;;;;;;;20.17;75.06;95989.73;1645349;85;20978;-80
2021/06/30 06:36:54;;;;;;;2.08;1.20;;;;;;;20.23;73.69;95996.12;1639240;85;20954;-80
2021/06/30 06:39:20;;;;;;;1.92;0.90;;;;;;;20.31;73.56;95998.29;1683480;85;20922;-80
2021/06/30 06:41:46;;;;;;;2.40;1.00;;;;;;;20.44;72.28;95996.31;1676998;84;20963;-80
2021/06/30 06:44:11;;;;;;;1.62;0.80;;;;;;;20.53;72.55;96002.72;1678548;85;20966;-80
2021/06/30 06:46:39;;;;;;;1.12;0.78;;;;;;;20.59;73.03;96001.70;1686878;84;21269;-80
2021/06/30 06:49:08;;;;;;;2.10;1.10;;;;;;;20.63;72.77;96008.84;1687574;84;21182;-80
2021/06/30 06:51:36;;;;;;;3.02;1.15;;;;;;;20.63;71.46;96006.73;1688224;84;20928;-80
2021/06/30 06:54:03;;;;;;;2.85;1.40;;;;;;;20.64;71.00;96010.96;1670927;84;21005;-80
2021/06/30 06:56:28;;;;;;;2.62;1.30;;;;;;;20.59;70.72;96006.97;1687394;84;21011;-80
2021/06/30 06:58:54;;;;;;;3.85;0.85;;;;;;;20.52;69.75;96007.20;1673292;84;21231;-80
2021/06/30 07:01:22;;;;;;;1.95;0.72;;;;;;;20.48;70.26;96010.05;1675685;84;20940;-80
2021/06/30 07:03:47;;;;;;;0.80;0.70;;;;;;;20.52;70.42;96007.73;1696137;83;21461;-80
2021/06/30 07:06:13;;;;;;;2.22;0.55;;;;;;;20.56;70.54;96008.81;1678613;84;20991;-81
2021/06/30 07:08:39;;;;;;;2.52;0.93;;;;;;;20.61;70.16;96008.83;1695526;83;21385;-80
2021/06/30 07:11:05;;;;;;;1.40;0.90;;;;;;;20.67;71.61;96003.35;1663695;86;20906;-80
2021/06/30 07:13:31;;;;;;;1.80;1.10;;;;;;;20.75;72.07;95997.31;1677749;85;21021;-80
2021/06/30 07:15:57;;;;;;;4.22;1.65;;;;;;;20.89;70.42;96003.20;1677696;84;21240;-81
2021/06/30 07:18:22;;;;;;;1.75;1.30;;;;;;;20.89;69.05;95997.13;1696345;84;20944;-80
2021/06/30 07:20:48;;;;;;;2.95;1.00;;;;;;;20.94;69.54;95995.83;1678260;84;20999;-80
2021/06/30 07:23:14;;;;;;;1.85;0.72;;;;;;;20.94;68.34;95992.66;1661446;85;21358;-80
2021/06/30 07:25:40;;;;;;;2.37;0.88;;;;;;;21.00;69.46;95991.39;1684186;84;20932;-80
2021/06/30 07:28:06;;;;;;;3.92;2.20;;;;;;;21.06;69.37;95991.14;1685041;84;20977;-81
2021/06/30 07:30:31;;;;;;;2.58;1.10;;;;;;;21.08;68.77;95990.89;1681792;85;21280;-80
2021/06/30 07:32:58;;;;;;;1.70;1.20;;;;;;;21.17;68.21;95994.11;1672602;84;20978;-80
2021/06/30 07:35:23;;;;;;;1.82;0.88;;;;;;;21.23;67.72;95992.28;1652778;86;20965;-80
2021/06/30 07:37:49;;;;;;;1.50;0.60;;;;;;;21.32;67.18;95993.94;1653671;86;20929;-80
2021/06/30 07:40:15;;;;;;;1.72;0.70;;;;;;;21.35;66.73;95989.45;1662594;86;21307;-80
2021/06/30 07:42:41;;;;;;;3.02;0.82;;;;;;;21.40;67.29;95981.53;1666128;86;20981;-80
2021/06/30 07:45:08;;;;;;;1.05;0.60;;;;;;;21.43;68.11;95979.69;1669962;86;20962;-80
2021/06/30 07:47:34;;;;;;;1.70;0.60;;;;;;;21.48;68.76;95982.37;1666525;85;21290;-80
2021/06/30 07:50:01;;;;;;;2.67;1.15;;;;;;;21.51;69.46;95982.63;1649574;86;21080;-79
2021/06/30 07:52:27;;;;;;;1.10;0.82;;;;;;;21.55;69.03;95974.97;1671753;86;21300;-80
2021/06/30 07:54:53;;;;;;;2.22;1.00;;;;;;;21.58;68.17;95976.56;1674179;85;20936;-81
2021/06/30 07:57:19;;;;;;;2.12;1.57;;;;;;;21.63;68.45;95973.12;1674095;85;20948;-80
2021/06/30 07:59:45;;;;;;;1.82;1.15;;;;;;;21.67;67.54;95973.42;1673541;85;20913;-80
2021/06/30 08:02:11;;;;;;;16.55;11.10;;;;;;;21.72;67.92;95974.74;1662742;86;20949;-80
2021/06/30 08:04:37;;;;;;;5.65;2.52;;;;;;;21.80;67.81;95979.00;1670016;86;21259;-80
2021/06/30 08:07:03;;;;;;;3.72;1.20;;;;;;;21.83;67.25;95967.11;1676871;84;20920;-80
2021/06/30 08:09:31;;;;;;;3.85;1.30;;;;;;;21.89;68.14;95975.30;1674145;85;20975;-80
2021/06/30 08:11:57;;;;;;;2.40;1.42;;;;;;;21.96;67.04;95977.14;1673073;84;20973;-80
2021/06/30 08:14:22;;;;;;;2.58;1.35;;;;;;;22.12;66.76;95979.30;1671736;86;20906;-80
2021/06/30 08:16:48;;;;;;;3.15;1.40;;;;;;;22.25;66.09;95980.11;1668780;86;20964;-80
2021/06/30 08:19:14;;;;;;;2.47;1.30;;;;;;;22.53;65.43;95977.98;1665663;86;21266;-79
2021/06/30 08:21:39;;;;;;;2.77;1.32;;;;;;;22.53;65.43;95977.98;1662663;86;20973;-80
2021/06/30 08:24:05;;;;;;;3.12;1.17;;;;;;;22.64;65.55;95974.27;1663674;86;20929;-80
2021/06/30 08:26:31;;;;;;;1.65;1.40;;;;;;;22.77;65.48;95980.30;1673604;85;20983;-79
2021/06/30 08:28:58;;;;;;;2.10;1.57;;;;;;;22.90;64.18;95975.81;1667156;86;21042;-80
2021/06/30 08:31:23;;;;;;;2.42;1.40;;;;;;;22.93;64.85;95971.29;1671140;86;20948;-80
2021/06/30 08:33:49;;;;;;;2.40;1.77;;;;;;;23.10;64.57;95974.94;1675278;84;21064;-80
2021/06/30 08:36:15;;;;;;;2.40;1.55;;;;;;;23.23;64.48;95977.02;1677739;84;21313;-79
2021/06/30 08:38:41;;;;;;;2.60;1.90;;;;;;;23.35;62.77;95978.04;1660330;84;20982;-80
2021/06/30 08:41:07;;;;;;;1.85;1.60;;;;;;;23.37;62.93;95971.92;1638882;86;21320;-80
2021/06/30 08:43:32;;;;;;;2.20;1.98;;;;;;;23.55;63.51;95975.28;1655346;85;21007;-80
2021/06/30 08:46:00;;;;;;;4.00;2.27;;;;;;;23.75;62.94;95985.00;1665658;85;21028;-80
2021/06/30 08:48:31;;;;;;;3.90;1.90;;;;;;;23.82;62.68;95978.88;1665271;85;21000;-80
2021/06/30 08:50:58;;;;;;;3.20;2.23;;;;;;;24.00;63.52;95971.33;1665114;85;21014;-80
2021/06/30 08:53:24;;;;;;;3.42;2.10;;;;;;;24.26;63.22;95970.08;1665333;85;20957;-80
2021/06/30 08:55:50;;;;;;;5.60;2.22;;;;;;;24.41;62.31;95973.96;1665036;85;20929;-80
2021/06/30 08:58:16;;;;;;;1.87;1.70;;;;;;;24.40;61.70;95984.30;1666211;85;20992;-80
2021/06/30 09:00:42;;;;;;;2.85;2.00;;;;;;;24.55;61.93;95982.84;1663052;85;21332;-80
2021/06/30 09:03:15;;;;;;;2.25;1.75;;;;;;;24.78;61.32;95976.53;1632814;85;21000;-80
2021/06/30 09:05:58;;;;;;;2.45;1.90;;;;;;;24.95;61.27;95964.92;1624783;86;21065;-80
2021/06/30 09:08:05;;;;;;;3.05;1.90;;;;;;;25.17;61.44;95964.95;1620108;86;21266;-80
2021/06/30 09:10:35;;;;;;;4.20;2.60;;;;;;;24.98;61.49;95971.53;1673761;84;21007;-80
2021/06/30 09:13:01;;;;;;;3.62;2.60;;;;;;;24.66;60.84;95970.27;1668821;85;20932;-80
2021/06/30 09:15:30;;;;;;;3.33;2.00;;;;;;;24.39;61.45;95965.99;1669448;85;21272;-80
2021/06/30 09:17:54;;;;;;;3.25;2.60;;;;;;;24.50;62.39;95968.28;1682066;84;20938;-80
2021/06/30 09:20:20;;;;;;;2.65;1.80;;;;;;;24.67;62.70;95962.55;1669337;85;21367;-80
2021/06/30 09:22:52;;;;;;;2.80;2.20;;;;;;;24.75;63.59;95966.47;1669022;85;20934;-80
2021/06/30 09:25:25;;;;;;;;;;;;;;;24.95;63.58;95974.75;1668474;85;20909;-80
2021/06/30 09:27:51;;;;;;;3.62;2.55;;;;;;;24.91;62.29;95981.18;1674668;84;20123;-80
2021/06/30 09:30:17;;;;;;;4.65;3.30;;;;;;;25.12;62.43;95975.13;1639251;86;21027;-80
2021/06/30 09:33:00;;;;;;;3.17;2.42;;;;;;;25.36;61.69;95975.88;1631595;86;20950;-81
2021/06/30 09:35:33;;;;;;;3.35;3.05;;;;;;;25.59;61.94;95968.95;1657188;85;20989;-81
2021/06/30 09:38:30;;;;;;;3.52;3.22;;;;;;;25.75;61.44;95971.43;1638518;86;20983;-80
2021/06/30 09:40:56;;;;;;;3.12;2.70;;;;;;;25.81;59.85;95976.92;1648260;85;21345;-80
2021/06/30 09:43:24;;;;;;;4.37;3.08;;;;;;;25.50;60.06;95983.95;1669436;85;20936;-80
2021/06/30 09:45:50;;;;;;;4.30;2.47;;;;;;;25.17;60.00;95980.38;1637058;86;21008;-80
2021/06/30 09:48:32;;;;;;;3.67;3.02;;;;;;;25.11;61.09;95980.98;1670439;85;20933;-80
2021/06/30 09:50:59;;;;;;;3.50;2.85;;;;;;;25.00;60.59;95982.16;1678795;84;20953;-80
2021/06/30 09:53:41;;;;;;;3.87;3.50;;;;;;;24.66;60.82;95977.44;1666126;84;20911;-80
2021/06/30 09:56:10;;;;;;;5.85;3.02;;;;;;;24.46;62.19;95971.79;1668564;85;20927;-80
2021/06/30 09:58:36;;;;;;;3.27;2.98;;;;;;;24.51;62.18;95969.87;1650149;86;20973;-80
2021/06/30 10:01:20;;;;;;;4.80;3.50;;;;;;;24.28;62.79;95973.23;1637137;86;20933;-80
2021/06/30 10:03:46;;;;;;;28.25;21.55;;;;;;;24.04;62.98;95973.14;1626027;86;20945;-80
2021/06/30 10:06:33;;;;;;;27.30;24.43;;;;;;;24.13;63.35;95980.00;1657889;85;21338;-80
2021/06/30 10:09:01;;;;;;;5.50;3.27;;;;;;;24.12;63.96;95973.89;1664444;85;20981;-80
2021/06/30 10:11:28;;;;;;;3.20;2.90;;;;;;;24.04;62.45;95978.45;1664384;85;20960;-80
2021/06/30 10:13:55;;;;;;;4.97;3.15;;;;;;;23.96;62.20;95972.42;1667658;85;21013;-80
2021/06/30 10:16:22;;;;;;;3.20;2.90;;;;;;;23.71;62.37;95976.02;1667097;85;20951;-80
2021/06/30 10:18:50;;;;;;;3.72;2.55;;;;;;;23.79;63.18;95976.78;1668933;85;20953;-80
2021/06/30 10:21:22;;;;;;;3.37;2.30;;;;;;;24.09;63.84;95977.11;1669402;85;20990;-81
2021/06/30 10:23:47;;;;;;;;;;;;;;;24.32;63.37;95982.25;1671686;85;21362;-81
2021/06/30 10:26:15;;;;;;;3.35;2.10;;;;;;;24.45;63.10;95976.31;1649243;85;20102;-80
2021/06/30 10:28:43;;;;;;;3.10;2.72;;;;;;;24.53;63.32;95969.05;1650947;85;21010;-80
2021/06/30 10:31:09;;;;;;;2.75;2.15;;;;;;;24.68;63.03;95977.95;1665572;85;21032;-80
2021/06/30 10:33:39;;;;;;;3.60;2.10;;;;;;;24.76;62.77;95976.81;1668436;85;20975;-80
2021/06/30 10:36:08;;;;;;;3.25;2.10;;;;;;;24.80;62.16;95973.05;1669350;85;20986;-81
2021/06/30 10:38:55;;;;;;;2.98;1.87;;;;;;;24.90;62.25;95970.84;1670093;85;21045;-80
2021/06/30 10:41:52;;;;;;;2.85;2.15;;;;;;;25.06;61.73;95971.74;1669994;85;21306;-80
2021/06/30 10:44:26;;;;;;;3.08;1.95;;;;;;;25.08;61.41;95962.16;1623451;86;20965;-80
2021/06/30 10:46:53;;;;;;;2.40;2.00;;;;;;;25.25;62.72;95965.67;1658034;85;20948;-81
2021/06/30 10:49:29;;;;;;;2.15;1.90;;;;;;;25.31;61.29;95967.19;1663658;85;21311;-80
2021/06/30 10:52:01;;;;;;;2.20;1.77;;;;;;;25.26;61.98;95960.07;1665998;85;21013;-81
2021/06/30 10:54:42;;;;;;;3.02;1.77;;;;;;;25.36;61.49;95964.45;1664379;85;20955;-80
2021/06/30 10:57:23;;;;;;;3.42;2.22;;;;;;;25.53;61.31;95958.11;1665915;85;20945;-80
2021/06/30 11:00:15;;;;;;;3.80;2.27;;;;;;;25.66;60.78;95956.61;1645522;85;20965;-81
2021/06/30 11:02:41;;;;;;;2.92;1.90;;;;;;;25.73;59.74;95959.20;1667449;85;20936;-80
2021/06/30 11:05:18;;;;;;;2.50;2.20;;;;;;;25.64;58.73;95962.22;1663227;85;21249;-81
2021/06/30 11:07:46;;;;;;;2.15;1.72;;;;;;;25.46;59.84;95969.66;1664005;85;20982;-80
2021/06/30 11:10:24;;;;;;;2.70;2.00;;;;;;;25.38;59.65;95963.63;1662092;85;21024;-81
2021/06/30 11:12:59;;;;;;;3.52;1.82;;;;;;;25.45;59.17;95966.74;1666645;85;20911;-81
2021/06/30 11:15:39;;;;;;;2.00;1.77;;;;;;;25.51;59.42;95970.11;1669202;85;20976;-80
2021/06/30 11:18:16;;;;;;;1.95;1.75;;;;;;;25.56;59.88;95967.41;1648986;85;20958;-80
2021/06/30 11:20:46;;;;;;;2.25;2.02;;;;;;;25.47;59.49;95971.23;1655014;85;21065;-80
2021/06/30 11:23:27;;;;;;;1.72;1.30;;;;;;;25.37;58.46;95970.02;1659359;85;20954;-80
2021/06/30 11:25:54;;;;;;;1.98;1.82;;;;;;;25.37;58.46;95970.02;1663276;85;20956;-81
2021/06/30 11:28:36;;;;;;;2.58;1.80;;;;;;;25.48;60.18;95968.03;1653777;85;20950;-81
2021/06/30 11:31:30;;;;;;;3.70;1.92;;;;;;;25.66;60.36;95963.26;1659411;85;21366;-80
2021/06/30 11:34:17;;;;;;;3.60;1.90;;;;;;;25.82;59.50;95962.53;1651111;85;21377;-80
2021/06/30 11:36:42;;;;;;;3.42;1.80;;;;;;;25.63;58.92;95956.64;1667942;85;21002;-81